sensor_id;sensor_type;location;lat;lon;timestamp;P1;durP1;ratioP1;P2;durP2;ratioP2
215;SDS011;70668;48.81286795;9.14184224;2023-12-20T00:01:35;4.50;;;2.47;;
215;SDS011;70668;48.81286795;9.14184224;2023-12-20T00:04:03;4.93;;;2.93;;
215;SDS011;70668;48.81286795;9.14184224;2023-12-20T00:06:32;5.80;;;2.80;;
215;SDS011;70668;48.81286795;9.14184224;2023-12-20T00:09:01;4.43;;;2.67;;
215;SDS011;70668;48.81286795;9.14184224;2023-12-20T00:11:32;5.13;;;2.90;;
215;SDS011;70668;48.81286795;9.14184224;2023-12-20T00:14:00;4.90;;;2.63;;
215;SDS011;70668;48.81286795;9.14184224;2023-12-20T00:16:29;4.20;;;2.47;;
215;SDS011;70668;48.81286795;9.14184224;2023-12-20T00:18:57;4.47;;;2.60;;
215;SDS011;70668;48.81286795;9.14184224;2023-12-20T00:21:25;4.30;;;2.67;;
215;SDS011;70668;48.81286795;9.14184224;2023-12-20T00:23:54;4.53;;;2.60;;
215;SDS011;70668;48.81286795;9.14184224;2023-12-20T00:26:22;4.30;;;2.80;;
215;SDS011;70668;48.81286795;9.14184224;2023-12-20T00:28:56;4.90;;;2.87;;
215;SDS011;70668;48.81286795;9.14184224;2023-12-20T00:31:24;4.70;;;2.80;;
215;SDS011;70668;48.81286795;9.14184224;2023-12-20T00:33:52;4.40;;;2.70;;
215;SDS011;70668;48.81286795;9.14184224;2023-12-20T00:36:21;4.63;;;2.77;;
215;SDS011;70668;48.81286795;9.14184224;2023-12-20T00:38:50;5.07;;;2.80;;
215;SDS011;70668;48.81286795;9.14184224;2023-12-20T00:41:18;6.13;;;2.80;;
215;SDS011;70668;48.81286795;9.14184224;2023-12-20T00:43:47;5.33;;;3.20;;
215;SDS011;70668;48.81286795;9.14184224;2023-12-20T00:46:18;4.30;;;2.77;;
215;SDS011;70668;48.81286795;9.14184224;2023-12-20T00:48:46;4.80;;;2.93;;
215;SDS011;70668;48.81286795;9.14184224;2023-12-20T00:51:15;3.80;;;2.50;;
215;SDS011;70668;48.81286795;9.14184224;2023-12-20T00:53:43;8.57;;;3.10;;
215;SDS011;70668;48.81286795;9.14184224;2023-12-20T00:56:14;5.13;;;2.57;;
215;SDS011;70668;48.81286795;9.14184224;2023-12-20T00:58:43;4.73;;;2.77;;
215;SDS011;70668;48.81286795;9.14184224;2023-12-20T01:01:11;5.00;;;2.80;;
215;SDS011;70668;48.81286795;9.14184224;2023-12-20T01:03:42;4.70;;;2.60;;
215;SDS011;70668;48.81286795;9.14184224;2023-12-20T01:06:11;5.80;;;2.90;;
215;SDS011;70668;48.81286795;9.14184224;2023-12-20T01:08:41;4.57;;;2.90;;
215;SDS011;70668;48.81286795;9.14184224;2023-12-20T01:11:09;4.93;;;2.83;;
215;SDS011;70668;48.81286795;9.14184224;2023-12-20T01:13:37;10.30;;;3.20;;
215;SDS011;70668;48.81286795;9.14184224;2023-12-20T01:16:06;5.97;;;2.70;;
215;SDS011;70668;48.81286795;9.14184224;2023-12-20T01:18:34;7.57;;;3.10;;
215;SDS011;70668;48.81286795;9.14184224;2023-12-20T01:21:06;6.73;;;3.10;;
215;SDS011;70668;48.81286795;9.14184224;2023-12-20T01:23:35;6.10;;;3.17;;
215;SDS011;70668;48.81286795;9.14184224;2023-12-20T01:26:03;5.50;;;3.17;;
215;SDS011;70668;48.81286795;9.14184224;2023-12-20T01:28:32;6.20;;;3.23;;
215;SDS011;70668;48.81286795;9.14184224;2023-12-20T01:31:00;5.80;;;3.47;;
215;SDS011;70668;48.81286795;9.14184224;2023-12-20T01:33:29;8.07;;;3.87;;
215;SDS011;70668;48.81286795;9.14184224;2023-12-20T01:35:57;6.77;;;3.63;;
215;SDS011;70668;48.81286795;9.14184224;2023-12-20T01:38:28;7.03;;;3.97;;
215;SDS011;70668;48.81286795;9.14184224;2023-12-20T01:40:57;5.97;;;3.63;;
215;SDS011;70668;48.81286795;9.14184224;2023-12-20T01:43:26;6.83;;;3.63;;
215;SDS011;70668;48.81286795;9.14184224;2023-12-20T01:45:54;5.80;;;3.70;;
215;SDS011;70668;48.81286795;9.14184224;2023-12-20T01:48:24;5.20;;;3.27;;
215;SDS011;70668;48.81286795;9.14184224;2023-12-20T01:50:53;6.40;;;3.70;;
215;SDS011;70668;48.81286795;9.14184224;2023-12-20T01:53:23;7.03;;;3.43;;
215;SDS011;70668;48.81286795;9.14184224;2023-12-20T01:55:56;6.20;;;3.80;;
215;SDS011;70668;48.81286795;9.14184224;2023-12-20T01:58:26;5.87;;;3.57;;
215;SDS011;70668;48.81286795;9.14184224;2023-12-20T02:00:56;8.13;;;3.83;;
215;SDS011;70668;48.81286795;9.14184224;2023-12-20T02:03:25;5.33;;;3.63;;
215;SDS011;70668;48.81286795;9.14184224;2023-12-20T02:05:53;6.90;;;4.17;;
215;SDS011;70668;48.81286795;9.14184224;2023-12-20T02:08:22;7.30;;;4.00;;
215;SDS011;70668;48.81286795;9.14184224;2023-12-20T02:10:51;8.10;;;3.77;;
215;SDS011;70668;48.81286795;9.14184224;2023-12-20T02:13:22;5.73;;;3.80;;
215;SDS011;70668;48.81286795;9.14184224;2023-12-20T02:15:51;6.50;;;3.83;;
215;SDS011;70668;48.81286795;9.14184224;2023-12-20T02:18:20;9.43;;;4.20;;
215;SDS011;70668;48.81286795;9.14184224;2023-12-20T02:20:49;6.87;;;4.00;;
215;SDS011;70668;48.81286795;9.14184224;2023-12-20T02:23:20;5.63;;;3.83;;
215;SDS011;70668;48.81286795;9.14184224;2023-12-20T02:25:49;6.50;;;4.00;;
215;SDS011;70668;48.81286795;9.14184224;2023-12-20T02:28:17;9.40;;;4.60;;
215;SDS011;70668;48.81286795;9.14184224;2023-12-20T02:30:47;8.80;;;4.10;;
215;SDS011;70668;48.81286795;9.14184224;2023-12-20T02:33:17;7.00;;;4.10;;
215;SDS011;70668;48.81286795;9.14184224;2023-12-20T02:35:45;6.10;;;3.93;;
215;SDS011;70668;48.81286795;9.14184224;2023-12-20T02:38:14;7.80;;;4.00;;
215;SDS011;70668;48.81286795;9.14184224;2023-12-20T02:40:45;6.73;;;3.97;;
215;SDS011;70668;48.81286795;9.14184224;2023-12-20T02:43:13;6.30;;;3.73;;
215;SDS011;70668;48.81286795;9.14184224;2023-12-20T02:45:42;5.20;;;3.40;;
215;SDS011;70668;48.81286795;9.14184224;2023-12-20T02:48:10;7.60;;;4.17;;
215;SDS011;70668;48.81286795;9.14184224;2023-12-20T02:50:39;7.60;;;4.20;;
215;SDS011;70668;48.81286795;9.14184224;2023-12-20T02:53:07;7.93;;;3.73;;
215;SDS011;70668;48.81286795;9.14184224;2023-12-20T02:55:36;6.40;;;4.30;;
215;SDS011;70668;48.81286795;9.14184224;2023-12-20T02:58:07;6.90;;;4.00;;
215;SDS011;70668;48.81286795;9.14184224;2023-12-20T03:00:36;6.77;;;4.17;;
215;SDS011;70668;48.81286795;9.14184224;2023-12-20T03:03:04;4.37;;;2.43;;
215;SDS011;70668;48.81286795;9.14184224;2023-12-20T03:05:32;4.07;;;2.47;;
215;SDS011;70668;48.81286795;9.14184224;2023-12-20T03:08:01;3.40;;;1.70;;
215;SDS011;70668;48.81286795;9.14184224;2023-12-20T03:10:30;2.60;;;1.70;;
215;SDS011;70668;48.81286795;9.14184224;2023-12-20T03:12:58;2.83;;;1.43;;
215;SDS011;70668;48.81286795;9.14184224;2023-12-20T03:15:29;4.63;;;1.40;;
215;SDS011;70668;48.81286795;9.14184224;2023-12-20T03:17:58;2.83;;;1.30;;
215;SDS011;70668;48.81286795;9.14184224;2023-12-20T03:20:26;2.90;;;1.30;;
215;SDS011;70668;48.81286795;9.14184224;2023-12-20T03:22:58;1.97;;;1.20;;
215;SDS011;70668;48.81286795;9.14184224;2023-12-20T03:25:26;2.40;;;1.30;;
215;SDS011;70668;48.81286795;9.14184224;2023-12-20T03:27:55;2.43;;;1.30;;
215;SDS011;70668;48.81286795;9.14184224;2023-12-20T03:30:23;2.03;;;1.20;;
215;SDS011;70668;48.81286795;9.14184224;2023-12-20T03:32:54;2.23;;;1.10;;
215;SDS011;70668;48.81286795;9.14184224;2023-12-20T03:35:23;3.63;;;1.23;;
215;SDS011;70668;48.81286795;9.14184224;2023-12-20T03:37:51;2.37;;;1.20;;
215;SDS011;70668;48.81286795;9.14184224;2023-12-20T03:40:20;2.20;;;1.20;;
215;SDS011;70668;48.81286795;9.14184224;2023-12-20T03:42:48;1.90;;;1.20;;
215;SDS011;70668;48.81286795;9.14184224;2023-12-20T03:45:17;2.40;;;1.20;;
215;SDS011;70668;48.81286795;9.14184224;2023-12-20T03:47:45;2.27;;;1.20;;
215;SDS011;70668;48.81286795;9.14184224;2023-12-20T03:50:17;2.30;;;1.30;;
215;SDS011;70668;48.81286795;9.14184224;2023-12-20T03:52:45;2.43;;;1.40;;
215;SDS011;70668;48.81286795;9.14184224;2023-12-20T03:55:14;3.90;;;1.20;;
215;SDS011;70668;48.81286795;9.14184224;2023-12-20T03:57:43;2.33;;;1.17;;
215;SDS011;70668;48.81286795;9.14184224;2023-12-20T04:00:12;2.40;;;1.30;;
215;SDS011;70668;48.81286795;9.14184224;2023-12-20T04:02:41;2.40;;;1.23;;
215;SDS011;70668;48.81286795;9.14184224;2023-12-20T04:05:10;2.70;;;1.20;;
215;SDS011;70668;48.81286795;9.14184224;2023-12-20T04:07:42;2.40;;;1.30;;
215;SDS011;70668;48.81286795;9.14184224;2023-12-20T04:10:10;4.83;;;1.30;;
215;SDS011;70668;48.81286795;9.14184224;2023-12-20T04:12:39;2.30;;;1.20;;
215;SDS011;70668;48.81286795;9.14184224;2023-12-20T04:15:07;2.40;;;1.30;;
215;SDS011;70668;48.81286795;9.14184224;2023-12-20T04:17:37;2.20;;;1.23;;
215;SDS011;70668;48.81286795;9.14184224;2023-12-20T04:20:06;2.07;;;1.10;;
215;SDS011;70668;48.81286795;9.14184224;2023-12-20T04:22:35;2.10;;;1.10;;
215;SDS011;70668;48.81286795;9.14184224;2023-12-20T04:25:07;2.03;;;1.17;;
215;SDS011;70668;48.81286795;9.14184224;2023-12-20T04:27:36;2.87;;;1.30;;
215;SDS011;70668;48.81286795;9.14184224;2023-12-20T04:30:05;2.53;;;1.10;;
215;SDS011;70668;48.81286795;9.14184224;2023-12-20T04:32:37;2.10;;;1.20;;
215;SDS011;70668;48.81286795;9.14184224;2023-12-20T04:35:06;1.80;;;1.10;;
215;SDS011;70668;48.81286795;9.14184224;2023-12-20T04:37:35;2.10;;;1.20;;
215;SDS011;70668;48.81286795;9.14184224;2023-12-20T04:40:04;2.10;;;1.30;;
215;SDS011;70668;48.81286795;9.14184224;2023-12-20T04:42:36;2.03;;;1.27;;
215;SDS011;70668;48.81286795;9.14184224;2023-12-20T04:45:05;2.40;;;1.20;;
215;SDS011;70668;48.81286795;9.14184224;2023-12-20T04:47:34;4.00;;;1.20;;
215;SDS011;70668;48.81286795;9.14184224;2023-12-20T04:50:03;2.10;;;1.20;;
215;SDS011;70668;48.81286795;9.14184224;2023-12-20T04:52:33;2.80;;;1.30;;
215;SDS011;70668;48.81286795;9.14184224;2023-12-20T04:55:01;2.87;;;1.13;;
215;SDS011;70668;48.81286795;9.14184224;2023-12-20T04:57:32;2.20;;;1.20;;
215;SDS011;70668;48.81286795;9.14184224;2023-12-20T05:00:01;2.10;;;1.20;;
215;SDS011;70668;48.81286795;9.14184224;2023-12-20T05:02:30;2.00;;;1.20;;
215;SDS011;70668;48.81286795;9.14184224;2023-12-20T05:04:58;3.40;;;1.20;;
215;SDS011;70668;48.81286795;9.14184224;2023-12-20T05:07:27;1.90;;;1.10;;
215;SDS011;70668;48.81286795;9.14184224;2023-12-20T05:09:55;2.47;;;1.30;;
215;SDS011;70668;48.81286795;9.14184224;2023-12-20T05:12:24;2.00;;;1.20;;
215;SDS011;70668;48.81286795;9.14184224;2023-12-20T05:14:55;1.83;;;1.20;;
215;SDS011;70668;48.81286795;9.14184224;2023-12-20T05:17:23;2.27;;;1.20;;
215;SDS011;70668;48.81286795;9.14184224;2023-12-20T05:19:52;2.35;;;1.30;;
215;SDS011;70668;48.81286795;9.14184224;2023-12-20T05:22:20;2.10;;;1.20;;
215;SDS011;70668;48.81286795;9.14184224;2023-12-20T05:24:49;2.70;;;1.40;;
215;SDS011;70668;48.81286795;9.14184224;2023-12-20T05:27:17;2.30;;;1.30;;
215;SDS011;70668;48.81286795;9.14184224;2023-12-20T05:29:46;2.40;;;1.33;;
215;SDS011;70668;48.81286795;9.14184224;2023-12-20T05:32:17;3.07;;;1.27;;
215;SDS011;70668;48.81286795;9.14184224;2023-12-20T05:34:46;2.20;;;1.23;;
215;SDS011;70668;48.81286795;9.14184224;2023-12-20T05:37:14;2.57;;;1.20;;
215;SDS011;70668;48.81286795;9.14184224;2023-12-20T05:39:43;3.90;;;1.57;;
215;SDS011;70668;48.81286795;9.14184224;2023-12-20T05:42:11;5.53;;;1.40;;
215;SDS011;70668;48.81286795;9.14184224;2023-12-20T05:44:40;2.30;;;1.40;;
215;SDS011;70668;48.81286795;9.14184224;2023-12-20T05:47:08;2.97;;;1.40;;
215;SDS011;70668;48.81286795;9.14184224;2023-12-20T05:49:39;4.00;;;1.53;;
215;SDS011;70668;48.81286795;9.14184224;2023-12-20T05:52:08;3.60;;;1.50;;
215;SDS011;70668;48.81286795;9.14184224;2023-12-20T05:54:36;2.30;;;1.47;;
215;SDS011;70668;48.81286795;9.14184224;2023-12-20T05:57:05;5.83;;;1.50;;
215;SDS011;70668;48.81286795;9.14184224;2023-12-20T05:59:33;6.10;;;1.60;;
215;SDS011;70668;48.81286795;9.14184224;2023-12-20T06:02:02;3.17;;;1.60;;
215;SDS011;70668;48.81286795;9.14184224;2023-12-20T06:04:31;4.93;;;1.60;;
215;SDS011;70668;48.81286795;9.14184224;2023-12-20T06:07:02;2.50;;;1.60;;
215;SDS011;70668;48.81286795;9.14184224;2023-12-20T06:09:31;3.87;;;1.70;;
215;SDS011;70668;48.81286795;9.14184224;2023-12-20T06:11:59;2.90;;;1.60;;
215;SDS011;70668;48.81286795;9.14184224;2023-12-20T06:14:28;3.40;;;2.00;;
215;SDS011;70668;48.81286795;9.14184224;2023-12-20T06:16:56;2.77;;;1.80;;
215;SDS011;70668;48.81286795;9.14184224;2023-12-20T06:19:26;3.83;;;1.87;;
215;SDS011;70668;48.81286795;9.14184224;2023-12-20T06:21:54;3.17;;;1.90;;
215;SDS011;70668;48.81286795;9.14184224;2023-12-20T06:24:25;3.30;;;1.97;;
215;SDS011;70668;48.81286795;9.14184224;2023-12-20T06:26:55;3.37;;;2.20;;
215;SDS011;70668;48.81286795;9.14184224;2023-12-20T06:29:23;4.50;;;2.13;;
215;SDS011;70668;48.81286795;9.14184224;2023-12-20T06:31:52;3.73;;;2.07;;
215;SDS011;70668;48.81286795;9.14184224;2023-12-20T06:34:20;3.20;;;1.90;;
215;SDS011;70668;48.81286795;9.14184224;2023-12-20T06:36:49;2.80;;;1.80;;
215;SDS011;70668;48.81286795;9.14184224;2023-12-20T06:39:17;3.27;;;2.10;;
215;SDS011;70668;48.81286795;9.14184224;2023-12-20T06:41:48;3.63;;;2.10;;
215;SDS011;70668;48.81286795;9.14184224;2023-12-20T06:44:16;4.07;;;2.20;;
215;SDS011;70668;48.81286795;9.14184224;2023-12-20T06:46:45;4.57;;;2.50;;
215;SDS011;70668;48.81286795;9.14184224;2023-12-20T06:49:13;5.83;;;2.80;;
215;SDS011;70668;48.81286795;9.14184224;2023-12-20T06:51:43;5.57;;;2.30;;
215;SDS011;70668;48.81286795;9.14184224;2023-12-20T06:54:12;5.97;;;2.53;;
215;SDS011;70668;48.81286795;9.14184224;2023-12-20T06:56:40;3.33;;;2.07;;
215;SDS011;70668;48.81286795;9.14184224;2023-12-20T06:59:11;5.00;;;2.87;;
215;SDS011;70668;48.81286795;9.14184224;2023-12-20T07:01:40;5.20;;;2.70;;
215;SDS011;70668;48.81286795;9.14184224;2023-12-20T07:04:09;4.33;;;2.63;;
215;SDS011;70668;48.81286795;9.14184224;2023-12-20T07:06:37;5.83;;;3.20;;
215;SDS011;70668;48.81286795;9.14184224;2023-12-20T07:09:06;6.03;;;3.33;;
215;SDS011;70668;48.81286795;9.14184224;2023-12-20T07:11:35;8.90;;;4.10;;
215;SDS011;70668;48.81286795;9.14184224;2023-12-20T07:14:04;7.90;;;4.40;;
215;SDS011;70668;48.81286795;9.14184224;2023-12-20T07:16:35;6.73;;;4.47;;
215;SDS011;70668;48.81286795;9.14184224;2023-12-20T07:19:03;7.97;;;4.90;;
215;SDS011;70668;48.81286795;9.14184224;2023-12-20T07:21:32;6.77;;;4.20;;
215;SDS011;70668;48.81286795;9.14184224;2023-12-20T07:24:00;8.93;;;5.20;;
215;SDS011;70668;48.81286795;9.14184224;2023-12-20T07:26:31;11.10;;;5.60;;
215;SDS011;70668;48.81286795;9.14184224;2023-12-20T07:29:00;7.07;;;4.70;;
215;SDS011;70668;48.81286795;9.14184224;2023-12-20T07:31:29;6.87;;;4.67;;
215;SDS011;70668;48.81286795;9.14184224;2023-12-20T07:34:00;7.43;;;4.73;;
215;SDS011;70668;48.81286795;9.14184224;2023-12-20T07:36:28;7.40;;;4.70;;
215;SDS011;70668;48.81286795;9.14184224;2023-12-20T07:38:57;7.40;;;4.90;;
215;SDS011;70668;48.81286795;9.14184224;2023-12-20T07:41:25;7.83;;;5.00;;
215;SDS011;70668;48.81286795;9.14184224;2023-12-20T07:43:54;7.27;;;4.87;;
215;SDS011;70668;48.81286795;9.14184224;2023-12-20T07:46:22;8.13;;;5.40;;
215;SDS011;70668;48.81286795;9.14184224;2023-12-20T07:48:51;12.43;;;5.60;;
215;SDS011;70668;48.81286795;9.14184224;2023-12-20T07:51:22;8.70;;;5.10;;
215;SDS011;70668;48.81286795;9.14184224;2023-12-20T07:53:51;7.87;;;5.00;;
215;SDS011;70668;48.81286795;9.14184224;2023-12-20T07:56:19;7.07;;;4.70;;
215;SDS011;70668;48.81286795;9.14184224;2023-12-20T07:58:48;8.63;;;4.83;;
215;SDS011;70668;48.81286795;9.14184224;2023-12-20T08:01:16;9.60;;;4.70;;
215;SDS011;70668;48.81286795;9.14184224;2023-12-20T08:03:46;8.47;;;5.27;;
215;SDS011;70668;48.81286795;9.14184224;2023-12-20T08:06:14;10.27;;;5.40;;
215;SDS011;70668;48.81286795;9.14184224;2023-12-20T08:08:45;11.80;;;5.47;;
215;SDS011;70668;48.81286795;9.14184224;2023-12-20T08:11:13;7.57;;;5.00;;
215;SDS011;70668;48.81286795;9.14184224;2023-12-20T08:13:42;8.18;;;4.90;;
215;SDS011;70668;48.81286795;9.14184224;2023-12-20T08:16:11;11.95;;;5.78;;
215;SDS011;70668;48.81286795;9.14184224;2023-12-20T08:18:42;10.57;;;5.43;;
215;SDS011;70668;48.81286795;9.14184224;2023-12-20T08:21:11;9.27;;;5.20;;
215;SDS011;70668;48.81286795;9.14184224;2023-12-20T08:23:39;8.52;;;5.30;;
215;SDS011;70668;48.81286795;9.14184224;2023-12-20T08:26:10;9.13;;;5.28;;
215;SDS011;70668;48.81286795;9.14184224;2023-12-20T08:28:39;9.65;;;5.38;;
215;SDS011;70668;48.81286795;9.14184224;2023-12-20T08:31:13;8.30;;;5.20;;
215;SDS011;70668;48.81286795;9.14184224;2023-12-20T08:33:43;9.60;;;6.00;;
215;SDS011;70668;48.81286795;9.14184224;2023-12-20T08:36:11;10.93;;;5.47;;
215;SDS011;70668;48.81286795;9.14184224;2023-12-20T08:38:40;12.05;;;5.90;;
215;SDS011;70668;48.81286795;9.14184224;2023-12-20T08:41:11;10.33;;;5.33;;
215;SDS011;70668;48.81286795;9.14184224;2023-12-20T08:43:39;8.98;;;5.22;;
215;SDS011;70668;48.81286795;9.14184224;2023-12-20T08:46:08;10.75;;;5.70;;
215;SDS011;70668;48.81286795;9.14184224;2023-12-20T08:48:37;9.00;;;4.72;;
215;SDS011;70668;48.81286795;9.14184224;2023-12-20T08:51:06;9.10;;;5.00;;
215;SDS011;70668;48.81286795;9.14184224;2023-12-20T08:53:35;8.23;;;5.10;;
215;SDS011;70668;48.81286795;9.14184224;2023-12-20T08:56:03;10.18;;;4.90;;
215;SDS011;70668;48.81286795;9.14184224;2023-12-20T08:58:35;9.82;;;4.90;;
215;SDS011;70668;48.81286795;9.14184224;2023-12-20T09:01:03;9.23;;;4.87;;
215;SDS011;70668;48.81286795;9.14184224;2023-12-20T09:03:32;8.23;;;5.10;;
215;SDS011;70668;48.81286795;9.14184224;2023-12-20T09:06:01;8.30;;;4.73;;
215;SDS011;70668;48.81286795;9.14184224;2023-12-20T09:08:30;11.43;;;5.30;;
215;SDS011;70668;48.81286795;9.14184224;2023-12-20T09:10:59;8.88;;;5.00;;
215;SDS011;70668;48.81286795;9.14184224;2023-12-20T09:13:27;8.85;;;5.18;;
215;SDS011;70668;48.81286795;9.14184224;2023-12-20T09:15:59;9.50;;;5.27;;
215;SDS011;70668;48.81286795;9.14184224;2023-12-20T09:18:28;8.10;;;4.83;;
215;SDS011;70668;48.81286795;9.14184224;2023-12-20T09:20:57;13.20;;;5.07;;
215;SDS011;70668;48.81286795;9.14184224;2023-12-20T09:23:25;9.25;;;4.40;;
215;SDS011;70668;48.81286795;9.14184224;2023-12-20T09:25:54;8.93;;;4.40;;
215;SDS011;70668;48.81286795;9.14184224;2023-12-20T09:28:22;9.23;;;4.03;;
215;SDS011;70668;48.81286795;9.14184224;2023-12-20T09:30:50;7.30;;;4.50;;
215;SDS011;70668;48.81286795;9.14184224;2023-12-20T09:33:21;8.60;;;4.07;;
215;SDS011;70668;48.81286795;9.14184224;2023-12-20T09:35:50;10.03;;;3.80;;
215;SDS011;70668;48.81286795;9.14184224;2023-12-20T09:38:18;10.00;;;4.10;;
215;SDS011;70668;48.81286795;9.14184224;2023-12-20T09:40:47;8.27;;;3.70;;
215;SDS011;70668;48.81286795;9.14184224;2023-12-20T09:43:18;8.30;;;3.27;;
215;SDS011;70668;48.81286795;9.14184224;2023-12-20T09:45:48;6.13;;;2.93;;
215;SDS011;70668;48.81286795;9.14184224;2023-12-20T09:48:18;8.50;;;3.00;;
215;SDS011;70668;48.81286795;9.14184224;2023-12-20T09:50:50;7.30;;;3.10;;
215;SDS011;70668;48.81286795;9.14184224;2023-12-20T09:53:18;12.93;;;3.20;;
215;SDS011;70668;48.81286795;9.14184224;2023-12-20T09:55:54;8.00;;;2.60;;
215;SDS011;70668;48.81286795;9.14184224;2023-12-20T09:58:25;11.53;;;3.30;;
215;SDS011;70668;48.81286795;9.14184224;2023-12-20T10:00:54;10.27;;;3.07;;
215;SDS011;70668;48.81286795;9.14184224;2023-12-20T10:03:24;5.40;;;2.70;;
215;SDS011;70668;48.81286795;9.14184224;2023-12-20T10:05:56;11.33;;;2.80;;
215;SDS011;70668;48.81286795;9.14184224;2023-12-20T10:08:25;13.23;;;3.00;;
215;SDS011;70668;48.81286795;9.14184224;2023-12-20T10:10:55;8.13;;;2.67;;
215;SDS011;70668;48.81286795;9.14184224;2023-12-20T10:13:27;6.87;;;2.70;;
215;SDS011;70668;48.81286795;9.14184224;2023-12-20T10:15:56;7.10;;;2.97;;
215;SDS011;70668;48.81286795;9.14184224;2023-12-20T10:18:26;9.40;;;3.20;;
215;SDS011;70668;48.81286795;9.14184224;2023-12-20T10:21:00;5.33;;;2.40;;
215;SDS011;70668;48.81286795;9.14184224;2023-12-20T10:23:28;6.17;;;2.97;;
215;SDS011;70668;48.81286795;9.14184224;2023-12-20T10:25:57;7.93;;;3.03;;
215;SDS011;70668;48.81286795;9.14184224;2023-12-20T10:28:26;6.77;;;3.00;;
215;SDS011;70668;48.81286795;9.14184224;2023-12-20T10:31:01;10.60;;;2.83;;
215;SDS011;70668;48.81286795;9.14184224;2023-12-20T10:33:30;5.77;;;2.70;;
215;SDS011;70668;48.81286795;9.14184224;2023-12-20T10:36:03;9.80;;;2.90;;
215;SDS011;70668;48.81286795;9.14184224;2023-12-20T10:38:32;7.40;;;3.00;;
215;SDS011;70668;48.81286795;9.14184224;2023-12-20T10:41:03;9.50;;;3.60;;
215;SDS011;70668;48.81286795;9.14184224;2023-12-20T10:43:33;11.43;;;3.20;;
215;SDS011;70668;48.81286795;9.14184224;2023-12-20T10:46:03;8.57;;;3.40;;
215;SDS011;70668;48.81286795;9.14184224;2023-12-20T10:48:31;10.00;;;3.37;;
215;SDS011;70668;48.81286795;9.14184224;2023-12-20T10:51:03;8.10;;;3.13;;
215;SDS011;70668;48.81286795;9.14184224;2023-12-20T10:53:33;7.03;;;2.97;;
215;SDS011;70668;48.81286795;9.14184224;2023-12-20T10:56:04;7.83;;;2.80;;
215;SDS011;70668;48.81286795;9.14184224;2023-12-20T10:58:33;9.70;;;3.07;;
215;SDS011;70668;48.81286795;9.14184224;2023-12-20T11:01:06;7.22;;;2.95;;
215;SDS011;70668;48.81286795;9.14184224;2023-12-20T11:03:35;7.33;;;2.70;;
215;SDS011;70668;48.81286795;9.14184224;2023-12-20T11:06:07;7.93;;;3.13;;
215;SDS011;70668;48.81286795;9.14184224;2023-12-20T11:08:44;8.00;;;3.00;;
215;SDS011;70668;48.81286795;9.14184224;2023-12-20T11:11:20;7.10;;;2.87;;
215;SDS011;70668;48.81286795;9.14184224;2023-12-20T11:13:58;7.40;;;2.77;;
215;SDS011;70668;48.81286795;9.14184224;2023-12-20T11:16:31;7.47;;;2.77;;
215;SDS011;70668;48.81286795;9.14184224;2023-12-20T11:19:04;7.77;;;2.90;;
215;SDS011;70668;48.81286795;9.14184224;2023-12-20T11:21:35;7.23;;;2.77;;
215;SDS011;70668;48.81286795;9.14184224;2023-12-20T11:24:04;11.03;;;3.20;;
215;SDS011;70668;48.81286795;9.14184224;2023-12-20T11:26:33;11.70;;;4.27;;
215;SDS011;70668;48.81286795;9.14184224;2023-12-20T11:31:59;7.10;;;2.70;;
215;SDS011;70668;48.81286795;9.14184224;2023-12-20T11:34:31;8.40;;;2.70;;
215;SDS011;70668;48.81286795;9.14184224;2023-12-20T11:37:04;5.83;;;2.50;;
215;SDS011;70668;48.81286795;9.14184224;2023-12-20T11:39:32;10.40;;;2.90;;
215;SDS011;70668;48.81286795;9.14184224;2023-12-20T11:42:04;7.03;;;2.80;;
215;SDS011;70668;48.81286795;9.14184224;2023-12-20T11:44:33;6.10;;;2.70;;
215;SDS011;70668;48.81286795;9.14184224;2023-12-20T11:47:02;9.90;;;3.33;;
215;SDS011;70668;48.81286795;9.14184224;2023-12-20T11:49:31;9.83;;;2.93;;
215;SDS011;70668;48.81286795;9.14184224;2023-12-20T11:51:59;5.67;;;2.60;;
215;SDS011;70668;48.81286795;9.14184224;2023-12-20T11:54:32;8.93;;;3.17;;
215;SDS011;70668;48.81286795;9.14184224;2023-12-20T11:57:01;10.90;;;3.40;;
215;SDS011;70668;48.81286795;9.14184224;2023-12-20T11:59:30;8.10;;;3.10;;
215;SDS011;70668;48.81286795;9.14184224;2023-12-20T12:01:59;9.67;;;3.07;;
215;SDS011;70668;48.81286795;9.14184224;2023-12-20T12:04:28;11.23;;;3.20;;
215;SDS011;70668;48.81286795;9.14184224;2023-12-20T12:06:57;6.77;;;2.87;;
215;SDS011;70668;48.81286795;9.14184224;2023-12-20T12:09:25;7.80;;;3.10;;
215;SDS011;70668;48.81286795;9.14184224;2023-12-20T12:11:56;8.50;;;2.93;;
215;SDS011;70668;48.81286795;9.14184224;2023-12-20T12:14:25;9.10;;;3.13;;
215;SDS011;70668;48.81286795;9.14184224;2023-12-20T12:16:54;7.80;;;3.20;;
215;SDS011;70668;48.81286795;9.14184224;2023-12-20T12:19:22;9.03;;;2.70;;
215;SDS011;70668;48.81286795;9.14184224;2023-12-20T12:22:03;10.90;;;3.27;;
215;SDS011;70668;48.81286795;9.14184224;2023-12-20T12:24:32;9.03;;;3.60;;
215;SDS011;70668;48.81286795;9.14184224;2023-12-20T12:27:05;8.70;;;3.00;;
215;SDS011;70668;48.81286795;9.14184224;2023-12-20T12:29:34;8.80;;;2.87;;
215;SDS011;70668;48.81286795;9.14184224;2023-12-20T12:32:04;7.60;;;3.10;;
215;SDS011;70668;48.81286795;9.14184224;2023-12-20T12:34:33;9.10;;;3.20;;
215;SDS011;70668;48.81286795;9.14184224;2023-12-20T12:37:03;6.40;;;2.70;;
215;SDS011;70668;48.81286795;9.14184224;2023-12-20T12:39:32;8.10;;;3.20;;
215;SDS011;70668;48.81286795;9.14184224;2023-12-20T12:42:00;6.83;;;2.93;;
215;SDS011;70668;48.81286795;9.14184224;2023-12-20T12:44:31;9.40;;;3.07;;
215;SDS011;70668;48.81286795;9.14184224;2023-12-20T12:47:00;9.10;;;3.13;;
215;SDS011;70668;48.81286795;9.14184224;2023-12-20T12:49:28;11.43;;;3.43;;
215;SDS011;70668;48.81286795;9.14184224;2023-12-20T12:51:57;8.17;;;3.10;;
215;SDS011;70668;48.81286795;9.14184224;2023-12-20T12:54:25;10.30;;;3.00;;
215;SDS011;70668;48.81286795;9.14184224;2023-12-20T12:56:54;12.30;;;3.40;;
215;SDS011;70668;48.81286795;9.14184224;2023-12-20T12:59:23;7.77;;;3.70;;
215;SDS011;70668;48.81286795;9.14184224;2023-12-20T13:01:54;7.97;;;2.80;;
215;SDS011;70668;48.81286795;9.14184224;2023-12-20T13:04:23;8.70;;;2.80;;
215;SDS011;70668;48.81286795;9.14184224;2023-12-20T13:06:52;8.20;;;2.67;;
215;SDS011;70668;48.81286795;9.14184224;2023-12-20T13:09:20;8.40;;;2.70;;
215;SDS011;70668;48.81286795;9.14184224;2023-12-20T13:11:49;7.03;;;2.77;;
215;SDS011;70668;48.81286795;9.14184224;2023-12-20T13:14:17;9.73;;;2.80;;
215;SDS011;70668;48.81286795;9.14184224;2023-12-20T13:16:46;11.30;;;3.17;;
215;SDS011;70668;48.81286795;9.14184224;2023-12-20T13:19:17;6.90;;;2.70;;
215;SDS011;70668;48.81286795;9.14184224;2023-12-20T13:21:46;8.27;;;2.73;;
215;SDS011;70668;48.81286795;9.14184224;2023-12-20T13:24:14;6.60;;;2.80;;